sensor_id;sensor_type;location;lat;lon;timestamp;P1;durP1;ratioP1;P2;durP2;ratioP2
11303;SDS011;5707;49.588;12.148;2023-01-31T00:00:18;4.00;;;2.53;;
11303;SDS011;5707;49.588;12.148;2023-01-31T00:02:44;4.13;;;3.13;;
11303;SDS011;5707;49.588;12.148;2023-01-31T00:05:09;4.82;;;2.03;;
11303;SDS011;5707;49.588;12.148;2023-01-31T00:07:35;3.80;;;2.60;;
11303;SDS011;5707;49.588;12.148;2023-01-31T00:10:01;4.97;;;2.55;;
11303;SDS011;5707;49.588;12.148;2023-01-31T00:12:26;5.80;;;2.50;;
11303;SDS011;5707;49.588;12.148;2023-01-31T00:14:52;4.05;;;2.70;;
11303;SDS011;5707;49.588;12.148;2023-01-31T00:17:17;5.25;;;2.67;;
11303;SDS011;5707;49.588;12.148;2023-01-31T00:19:43;4.53;;;3.15;;
11303;SDS011;5707;49.588;12.148;2023-01-31T00:22:08;5.25;;;3.05;;
11303;SDS011;5707;49.588;12.148;2023-01-31T00:24:34;6.03;;;3.10;;
11303;SDS011;5707;49.588;12.148;2023-01-31T00:27:00;5.00;;;2.25;;
11303;SDS011;5707;49.588;12.148;2023-01-31T00:29:25;3.65;;;2.13;;
11303;SDS011;5707;49.588;12.148;2023-01-31T00:31:51;4.57;;;2.38;;
11303;SDS011;5707;49.588;12.148;2023-01-31T00:34:16;4.35;;;2.50;;
11303;SDS011;5707;49.588;12.148;2023-01-31T00:36:42;8.95;;;2.83;;
11303;SDS011;5707;49.588;12.148;2023-01-31T00:39:08;5.85;;;2.75;;
11303;SDS011;5707;49.588;12.148;2023-01-31T00:41:35;4.30;;;2.38;;
11303;SDS011;5707;49.588;12.148;2023-01-31T00:44:02;7.10;;;2.50;;
11303;SDS011;5707;49.588;12.148;2023-01-31T00:46:28;5.93;;;2.53;;
11303;SDS011;5707;49.588;12.148;2023-01-31T00:48:54;3.33;;;2.22;;
11303;SDS011;5707;49.588;12.148;2023-01-31T00:51:20;7.25;;;2.63;;
11303;SDS011;5707;49.588;12.148;2023-01-31T00:53:47;6.20;;;2.60;;
11303;SDS011;5707;49.588;12.148;2023-01-31T00:56:15;4.70;;;2.35;;
11303;SDS011;5707;49.588;12.148;2023-01-31T00:58:42;4.45;;;2.72;;
11303;SDS011;5707;49.588;12.148;2023-01-31T01:01:10;4.57;;;2.47;;
11303;SDS011;5707;49.588;12.148;2023-01-31T01:03:38;6.07;;;2.78;;
11303;SDS011;5707;49.588;12.148;2023-01-31T01:06:05;6.85;;;2.35;;
11303;SDS011;5707;49.588;12.148;2023-01-31T01:08:31;4.50;;;2.28;;
11303;SDS011;5707;49.588;12.148;2023-01-31T01:11:03;4.03;;;2.85;;
11303;SDS011;5707;49.588;12.148;2023-01-31T01:13:33;4.13;;;2.47;;
11303;SDS011;5707;49.588;12.148;2023-01-31T01:16:06;6.03;;;2.72;;
11303;SDS011;5707;49.588;12.148;2023-01-31T01:18:37;4.95;;;2.60;;
11303;SDS011;5707;49.588;12.148;2023-01-31T01:21:04;5.13;;;2.50;;
11303;SDS011;5707;49.588;12.148;2023-01-31T01:23:40;3.97;;;1.77;;
11303;SDS011;5707;49.588;12.148;2023-01-31T01:26:12;6.53;;;2.80;;
11303;SDS011;5707;49.588;12.148;2023-01-31T01:28:39;7.85;;;3.05;;
11303;SDS011;5707;49.588;12.148;2023-01-31T01:31:05;6.57;;;3.10;;
11303;SDS011;5707;49.588;12.148;2023-01-31T01:33:32;7.90;;;2.72;;
11303;SDS011;5707;49.588;12.148;2023-01-31T01:36:06;3.85;;;2.22;;
11303;SDS011;5707;49.588;12.148;2023-01-31T01:38:37;4.63;;;2.15;;
11303;SDS011;5707;49.588;12.148;2023-01-31T01:41:07;5.53;;;2.75;;
11303;SDS011;5707;49.588;12.148;2023-01-31T01:43:45;4.32;;;2.30;;
11303;SDS011;5707;49.588;12.148;2023-01-31T01:46:31;7.22;;;2.47;;
11303;SDS011;5707;49.588;12.148;2023-01-31T01:49:02;5.95;;;2.72;;
11303;SDS011;5707;49.588;12.148;2023-01-31T01:51:35;5.22;;;2.13;;
11303;SDS011;5707;49.588;12.148;2023-01-31T01:54:02;4.30;;;2.17;;
11303;SDS011;5707;49.588;12.148;2023-01-31T01:56:33;6.05;;;2.40;;
11303;SDS011;5707;49.588;12.148;2023-01-31T01:59:06;4.20;;;2.30;;
11303;SDS011;5707;49.588;12.148;2023-01-31T02:01:40;5.13;;;2.70;;
11303;SDS011;5707;49.588;12.148;2023-01-31T02:04:06;4.63;;;2.20;;
11303;SDS011;5707;49.588;12.148;2023-01-31T02:06:36;4.32;;;2.15;;
11303;SDS011;5707;49.588;12.148;2023-01-31T02:09:02;5.13;;;2.08;;
11303;SDS011;5707;49.588;12.148;2023-01-31T02:11:30;6.80;;;2.10;;
11303;SDS011;5707;49.588;12.148;2023-01-31T02:14:00;5.53;;;1.83;;
11303;SDS011;5707;49.588;12.148;2023-01-31T02:16:28;7.28;;;2.42;;
11303;SDS011;5707;49.588;12.148;2023-01-31T02:18:54;4.50;;;1.95;;
11303;SDS011;5707;49.588;12.148;2023-01-31T02:24:21;6.90;;;1.98;;
11303;SDS011;5707;49.588;12.148;2023-01-31T02:37:28;4.85;;;2.17;;
11303;SDS011;5707;49.588;12.148;2023-01-31T02:40:03;5.00;;;2.38;;
11303;SDS011;5707;49.588;12.148;2023-01-31T02:48:01;9.00;;;2.25;;
11303;SDS011;5707;49.588;12.148;2023-01-31T02:50:43;4.85;;;2.25;;
11303;SDS011;5707;49.588;12.148;2023-01-31T02:53:21;5.20;;;1.98;;
11303;SDS011;5707;49.588;12.148;2023-01-31T02:56:13;4.15;;;1.88;;
11303;SDS011;5707;49.588;12.148;2023-01-31T02:58:45;4.18;;;2.42;;
11303;SDS011;5707;49.588;12.148;2023-01-31T03:01:39;4.05;;;1.88;;
11303;SDS011;5707;49.588;12.148;2023-01-31T03:04:09;4.28;;;2.22;;
11303;SDS011;5707;49.588;12.148;2023-01-31T03:09:21;7.80;;;2.38;;
11303;SDS011;5707;49.588;12.148;2023-01-31T03:14:58;4.13;;;2.10;;
11303;SDS011;5707;49.588;12.148;2023-01-31T03:22:53;6.00;;;2.47;;
11303;SDS011;5707;49.588;12.148;2023-01-31T03:25:26;7.03;;;2.20;;
11303;SDS011;5707;49.588;12.148;2023-01-31T03:27:55;5.85;;;2.08;;
11303;SDS011;5707;49.588;12.148;2023-01-31T03:30:33;9.07;;;2.70;;
11303;SDS011;5707;49.588;12.148;2023-01-31T03:33:23;4.80;;;2.05;;
11303;SDS011;5707;49.588;12.148;2023-01-31T03:35:52;5.45;;;2.50;;
11303;SDS011;5707;49.588;12.148;2023-01-31T03:38:30;6.38;;;2.38;;
11303;SDS011;5707;49.588;12.148;2023-01-31T03:46:16;4.13;;;2.03;;
11303;SDS011;5707;49.588;12.148;2023-01-31T03:48:47;5.25;;;2.25;;
11303;SDS011;5707;49.588;12.148;2023-01-31T03:51:17;10.75;;;2.80;;
11303;SDS011;5707;49.588;12.148;2023-01-31T03:59:19;6.22;;;2.10;;
11303;SDS011;5707;49.588;12.148;2023-01-31T04:01:50;4.50;;;2.00;;
11303;SDS011;5707;49.588;12.148;2023-01-31T04:04:39;5.15;;;2.53;;
11303;SDS011;5707;49.588;12.148;2023-01-31T04:07:09;8.52;;;2.38;;
11303;SDS011;5707;49.588;12.148;2023-01-31T04:09:36;6.88;;;2.30;;
11303;SDS011;5707;49.588;12.148;2023-01-31T04:12:02;3.22;;;1.63;;
11303;SDS011;5707;49.588;12.148;2023-01-31T04:14:28;5.55;;;2.42;;
11303;SDS011;5707;49.588;12.148;2023-01-31T04:16:54;6.13;;;2.38;;
11303;SDS011;5707;49.588;12.148;2023-01-31T04:19:19;4.40;;;2.00;;
11303;SDS011;5707;49.588;12.148;2023-01-31T04:21:45;4.22;;;2.03;;
11303;SDS011;5707;49.588;12.148;2023-01-31T04:24:10;5.22;;;2.17;;
11303;SDS011;5707;49.588;12.148;2023-01-31T04:26:36;5.05;;;2.25;;
11303;SDS011;5707;49.588;12.148;2023-01-31T04:29:02;5.97;;;2.38;;
11303;SDS011;5707;49.588;12.148;2023-01-31T04:31:28;3.90;;;1.80;;
11303;SDS011;5707;49.588;12.148;2023-01-31T04:33:54;5.45;;;2.25;;
11303;SDS011;5707;49.588;12.148;2023-01-31T04:36:21;6.65;;;2.17;;
11303;SDS011;5707;49.588;12.148;2023-01-31T04:38:50;6.95;;;1.77;;
11303;SDS011;5707;49.588;12.148;2023-01-31T04:41:16;6.28;;;2.30;;
11303;SDS011;5707;49.588;12.148;2023-01-31T04:43:41;7.57;;;1.83;;
11303;SDS011;5707;49.588;12.148;2023-01-31T04:46:07;6.22;;;2.38;;
11303;SDS011;5707;49.588;12.148;2023-01-31T04:48:32;5.18;;;2.33;;
11303;SDS011;5707;49.588;12.148;2023-01-31T04:50:58;4.13;;;2.30;;
11303;SDS011;5707;49.588;12.148;2023-01-31T04:53:23;4.13;;;1.85;;
11303;SDS011;5707;49.588;12.148;2023-01-31T04:55:52;4.55;;;1.98;;
11303;SDS011;5707;49.588;12.148;2023-01-31T04:58:19;5.88;;;2.05;;
11303;SDS011;5707;49.588;12.148;2023-01-31T05:00:44;4.20;;;1.88;;
11303;SDS011;5707;49.588;12.148;2023-01-31T05:03:10;7.32;;;2.00;;
11303;SDS011;5707;49.588;12.148;2023-01-31T05:05:35;5.38;;;2.33;;
11303;SDS011;5707;49.588;12.148;2023-01-31T05:08:01;6.25;;;2.20;;
11303;SDS011;5707;49.588;12.148;2023-01-31T05:10:26;13.07;;;2.13;;
11303;SDS011;5707;49.588;12.148;2023-01-31T05:12:52;4.90;;;2.10;;
11303;SDS011;5707;49.588;12.148;2023-01-31T05:15:18;4.40;;;1.58;;
11303;SDS011;5707;49.588;12.148;2023-01-31T05:17:44;2.55;;;1.63;;
11303;SDS011;5707;49.588;12.148;2023-01-31T05:20:15;2.72;;;1.90;;
11303;SDS011;5707;49.588;12.148;2023-01-31T05:22:41;4.40;;;1.80;;
11303;SDS011;5707;49.588;12.148;2023-01-31T05:25:06;6.60;;;2.00;;
11303;SDS011;5707;49.588;12.148;2023-01-31T05:27:32;3.58;;;1.90;;
11303;SDS011;5707;49.588;12.148;2023-01-31T05:29:58;4.65;;;1.50;;
11303;SDS011;5707;49.588;12.148;2023-01-31T05:32:24;7.45;;;2.08;;
11303;SDS011;5707;49.588;12.148;2023-01-31T05:34:50;5.30;;;2.15;;
11303;SDS011;5707;49.588;12.148;2023-01-31T05:37:15;4.55;;;2.08;;
11303;SDS011;5707;49.588;12.148;2023-01-31T05:39:41;4.55;;;1.80;;
11303;SDS011;5707;49.588;12.148;2023-01-31T05:42:07;3.53;;;2.33;;
11303;SDS011;5707;49.588;12.148;2023-01-31T05:44:32;5.13;;;1.52;;
11303;SDS011;5707;49.588;12.148;2023-01-31T05:46:58;5.05;;;2.00;;
11303;SDS011;5707;49.588;12.148;2023-01-31T05:49:24;6.10;;;2.00;;
11303;SDS011;5707;49.588;12.148;2023-01-31T05:51:50;4.10;;;1.90;;
11303;SDS011;5707;49.588;12.148;2023-01-31T05:54:15;5.53;;;2.50;;
11303;SDS011;5707;49.588;12.148;2023-01-31T05:56:41;7.40;;;2.88;;
11303;SDS011;5707;49.588;12.148;2023-01-31T05:59:07;6.07;;;2.28;;
11303;SDS011;5707;49.588;12.148;2023-01-31T06:01:32;5.30;;;1.70;;
11303;SDS011;5707;49.588;12.148;2023-01-31T06:03:58;3.45;;;1.60;;
11303;SDS011;5707;49.588;12.148;2023-01-31T06:06:39;5.50;;;2.47;;
11303;SDS011;5707;49.588;12.148;2023-01-31T06:09:04;8.75;;;2.28;;
11303;SDS011;5707;49.588;12.148;2023-01-31T06:11:30;7.60;;;2.28;;
11303;SDS011;5707;49.588;12.148;2023-01-31T06:13:55;5.13;;;1.90;;
11303;SDS011;5707;49.588;12.148;2023-01-31T06:16:22;5.35;;;1.95;;
11303;SDS011;5707;49.588;12.148;2023-01-31T06:18:48;6.10;;;2.38;;
11303;SDS011;5707;49.588;12.148;2023-01-31T06:21:14;2.88;;;1.67;;
11303;SDS011;5707;49.588;12.148;2023-01-31T06:23:40;6.28;;;2.42;;
11303;SDS011;5707;49.588;12.148;2023-01-31T06:26:10;4.80;;;1.98;;
11303;SDS011;5707;49.588;12.148;2023-01-31T06:28:36;5.43;;;1.90;;
11303;SDS011;5707;49.588;12.148;2023-01-31T06:31:08;4.85;;;1.80;;
11303;SDS011;5707;49.588;12.148;2023-01-31T06:33:34;5.82;;;2.05;;
11303;SDS011;5707;49.588;12.148;2023-01-31T06:36:00;6.70;;;2.00;;
11303;SDS011;5707;49.588;12.148;2023-01-31T06:38:27;5.57;;;2.10;;
11303;SDS011;5707;49.588;12.148;2023-01-31T06:40:53;2.55;;;2.28;;
11303;SDS011;5707;49.588;12.148;2023-01-31T06:43:19;3.05;;;1.67;;
11303;SDS011;5707;49.588;12.148;2023-01-31T06:45:45;4.53;;;1.95;;
11303;SDS011;5707;49.588;12.148;2023-01-31T06:48:11;3.13;;;1.80;;
11303;SDS011;5707;49.588;12.148;2023-01-31T06:50:36;4.30;;;2.00;;
11303;SDS011;5707;49.588;12.148;2023-01-31T06:53:02;2.78;;;1.92;;
11303;SDS011;5707;49.588;12.148;2023-01-31T06:55:28;4.90;;;1.85;;
11303;SDS011;5707;49.588;12.148;2023-01-31T06:57:54;3.35;;;1.73;;
11303;SDS011;5707;49.588;12.148;2023-01-31T07:00:20;2.60;;;1.40;;
11303;SDS011;5707;49.588;12.148;2023-01-31T07:02:46;6.35;;;1.95;;
11303;SDS011;5707;49.588;12.148;2023-01-31T07:05:12;3.38;;;1.65;;
11303;SDS011;5707;49.588;12.148;2023-01-31T07:07:38;5.85;;;2.03;;
11303;SDS011;5707;49.588;12.148;2023-01-31T07:10:04;2.47;;;1.70;;
11303;SDS011;5707;49.588;12.148;2023-01-31T07:12:30;4.28;;;2.00;;
11303;SDS011;5707;49.588;12.148;2023-01-31T07:14:56;4.22;;;2.13;;
11303;SDS011;5707;49.588;12.148;2023-01-31T07:17:22;4.80;;;2.05;;
11303;SDS011;5707;49.588;12.148;2023-01-31T07:19:47;4.90;;;2.20;;
11303;SDS011;5707;49.588;12.148;2023-01-31T07:22:13;3.40;;;2.08;;
11303;SDS011;5707;49.588;12.148;2023-01-31T07:24:39;6.00;;;2.20;;
11303;SDS011;5707;49.588;12.148;2023-01-31T07:27:04;2.55;;;2.00;;
11303;SDS011;5707;49.588;12.148;2023-01-31T07:29:30;4.53;;;2.53;;
11303;SDS011;5707;49.588;12.148;2023-01-31T07:31:55;3.15;;;2.00;;
11303;SDS011;5707;49.588;12.148;2023-01-31T07:34:21;3.20;;;2.03;;
11303;SDS011;5707;49.588;12.148;2023-01-31T07:36:50;8.82;;;2.42;;
11303;SDS011;5707;49.588;12.148;2023-01-31T07:39:16;5.13;;;2.50;;
11303;SDS011;5707;49.588;12.148;2023-01-31T07:41:42;5.53;;;2.03;;
11303;SDS011;5707;49.588;12.148;2023-01-31T07:44:08;4.38;;;2.30;;
11303;SDS011;5707;49.588;12.148;2023-01-31T07:46:38;6.82;;;2.17;;
11303;SDS011;5707;49.588;12.148;2023-01-31T07:49:04;9.93;;;2.90;;
11303;SDS011;5707;49.588;12.148;2023-01-31T07:51:29;4.72;;;1.80;;
11303;SDS011;5707;49.588;12.148;2023-01-31T07:53:55;2.92;;;1.98;;
11303;SDS011;5707;49.588;12.148;2023-01-31T07:56:21;6.38;;;2.67;;
11303;SDS011;5707;49.588;12.148;2023-01-31T07:58:47;5.13;;;2.20;;
11303;SDS011;5707;49.588;12.148;2023-01-31T08:01:15;5.75;;;1.65;;
11303;SDS011;5707;49.588;12.148;2023-01-31T08:04:01;6.22;;;1.88;;
11303;SDS011;5707;49.588;12.148;2023-01-31T08:06:28;4.63;;;2.25;;
11303;SDS011;5707;49.588;12.148;2023-01-31T08:08:55;4.15;;;1.40;;
11303;SDS011;5707;49.588;12.148;2023-01-31T08:11:21;5.00;;;2.08;;
11303;SDS011;5707;49.588;12.148;2023-01-31T08:13:47;4.10;;;2.00;;
11303;SDS011;5707;49.588;12.148;2023-01-31T08:16:13;3.65;;;2.10;;
11303;SDS011;5707;49.588;12.148;2023-01-31T08:18:38;3.03;;;2.30;;
11303;SDS011;5707;49.588;12.148;2023-01-31T08:21:04;4.32;;;1.83;;
11303;SDS011;5707;49.588;12.148;2023-01-31T08:23:31;5.90;;;2.80;;
11303;SDS011;5707;49.588;12.148;2023-01-31T08:26:04;6.00;;;2.00;;
11303;SDS011;5707;49.588;12.148;2023-01-31T08:28:32;5.88;;;1.95;;
11303;SDS011;5707;49.588;12.148;2023-01-31T08:30:58;3.83;;;1.90;;
11303;SDS011;5707;49.588;12.148;2023-01-31T08:33:24;4.43;;;1.98;;
11303;SDS011;5707;49.588;12.148;2023-01-31T08:35:50;4.78;;;1.67;;
11303;SDS011;5707;49.588;12.148;2023-01-31T08:38:15;3.63;;;2.25;;
11303;SDS011;5707;49.588;12.148;2023-01-31T08:40:41;6.07;;;2.55;;
11303;SDS011;5707;49.588;12.148;2023-01-31T08:43:07;3.97;;;1.80;;
11303;SDS011;5707;49.588;12.148;2023-01-31T08:45:33;4.93;;;2.10;;
11303;SDS011;5707;49.588;12.148;2023-01-31T08:47:59;6.57;;;1.70;;
11303;SDS011;5707;49.588;12.148;2023-01-31T08:50:26;3.75;;;1.60;;
11303;SDS011;5707;49.588;12.148;2023-01-31T08:52:53;5.05;;;1.60;;
11303;SDS011;5707;49.588;12.148;2023-01-31T08:55:20;7.60;;;2.05;;
11303;SDS011;5707;49.588;12.148;2023-01-31T08:57:46;4.40;;;1.50;;
11303;SDS011;5707;49.588;12.148;2023-01-31T09:00:12;2.55;;;1.60;;
11303;SDS011;5707;49.588;12.148;2023-01-31T09:02:38;5.32;;;2.28;;
11303;SDS011;5707;49.588;12.148;2023-01-31T09:05:04;3.67;;;1.73;;
11303;SDS011;5707;49.588;12.148;2023-01-31T09:07:32;5.13;;;2.20;;
11303;SDS011;5707;49.588;12.148;2023-01-31T09:09:58;6.10;;;2.25;;
11303;SDS011;5707;49.588;12.148;2023-01-31T09:12:24;8.68;;;2.70;;
11303;SDS011;5707;49.588;12.148;2023-01-31T09:14:49;7.13;;;2.40;;
11303;SDS011;5707;49.588;12.148;2023-01-31T09:17:16;6.65;;;2.92;;
11303;SDS011;5707;49.588;12.148;2023-01-31T09:19:41;5.18;;;2.35;;
11303;SDS011;5707;49.588;12.148;2023-01-31T09:22:07;4.72;;;2.33;;
11303;SDS011;5707;49.588;12.148;2023-01-31T09:24:33;5.88;;;2.30;;
11303;SDS011;5707;49.588;12.148;2023-01-31T09:26:58;3.03;;;1.88;;
11303;SDS011;5707;49.588;12.148;2023-01-31T09:29:24;6.60;;;2.17;;
11303;SDS011;5707;49.588;12.148;2023-01-31T09:31:50;6.93;;;2.65;;
11303;SDS011;5707;49.588;12.148;2023-01-31T09:34:17;4.97;;;2.10;;
11303;SDS011;5707;49.588;12.148;2023-01-31T09:36:43;4.63;;;2.03;;
11303;SDS011;5707;49.588;12.148;2023-01-31T09:39:09;5.80;;;2.40;;
11303;SDS011;5707;49.588;12.148;2023-01-31T09:42:39;6.90;;;2.50;;
11303;SDS011;5707;49.588;12.148;2023-01-31T09:44:40;5.18;;;2.22;;
11303;SDS011;5707;49.588;12.148;2023-01-31T09:49:50;5.40;;;2.97;;
11303;SDS011;5707;49.588;12.148;2023-01-31T09:52:18;5.90;;;3.58;;
11303;SDS011;5707;49.588;12.148;2023-01-31T09:54:45;4.97;;;2.42;;
11303;SDS011;5707;49.588;12.148;2023-01-31T09:59:46;5.10;;;3.42;;
11303;SDS011;5707;49.588;12.148;2023-01-31T10:05:05;9.20;;;2.28;;
11303;SDS011;5707;49.588;12.148;2023-01-31T10:08:08;5.57;;;2.08;;
11303;SDS011;5707;49.588;12.148;2023-01-31T10:10:59;5.35;;;1.92;;
11303;SDS011;5707;49.588;12.148;2023-01-31T10:13:37;5.15;;;2.03;;
11303;SDS011;5707;49.588;12.148;2023-01-31T10:16:19;5.40;;;2.70;;
11303;SDS011;5707;49.588;12.148;2023-01-31T10:19:04;8.50;;;2.40;;
11303;SDS011;5707;49.588;12.148;2023-01-31T10:21:39;4.75;;;2.03;;
11303;SDS011;5707;49.588;12.148;2023-01-31T10:24:14;6.72;;;2.45;;
11303;SDS011;5707;49.588;12.148;2023-01-31T10:26:54;6.82;;;3.03;;
11303;SDS011;5707;49.588;12.148;2023-01-31T10:29:31;3.13;;;2.28;;
11303;SDS011;5707;49.588;12.148;2023-01-31T10:32:04;6.00;;;2.95;;
11303;SDS011;5707;49.588;12.148;2023-01-31T10:37:11;7.68;;;3.63;;
11303;SDS011;5707;49.588;12.148;2023-01-31T10:39:56;7.75;;;4.05;;
11303;SDS011;5707;49.588;12.148;2023-01-31T10:47:34;3.47;;;2.33;;
11303;SDS011;5707;49.588;12.148;2023-01-31T10:50:13;6.43;;;2.28;;
11303;SDS011;5707;49.588;12.148;2023-01-31T10:55:36;4.43;;;2.95;;
11303;SDS011;5707;49.588;12.148;2023-01-31T10:58:13;10.05;;;3.92;;
11303;SDS011;5707;49.588;12.148;2023-01-31T11:00:41;13.98;;;8.57;;
11303;SDS011;5707;49.588;12.148;2023-01-31T11:03:08;5.28;;;3.90;;
11303;SDS011;5707;49.588;12.148;2023-01-31T11:05:36;6.28;;;3.38;;
11303;SDS011;5707;49.588;12.148;2023-01-31T11:08:17;5.90;;;2.83;;
11303;SDS011;5707;49.588;12.148;2023-01-31T11:10:52;5.07;;;3.10;;
11303;SDS011;5707;49.588;12.148;2023-01-31T11:13:19;4.47;;;3.00;;
11303;SDS011;5707;49.588;12.148;2023-01-31T11:15:45;3.35;;;2.80;;
11303;SDS011;5707;49.588;12.148;2023-01-31T11:18:22;5.45;;;2.75;;
11303;SDS011;5707;49.588;12.148;2023-01-31T11:20:48;6.18;;;2.80;;
11303;SDS011;5707;49.588;12.148;2023-01-31T11:23:15;5.63;;;3.08;;
11303;SDS011;5707;49.588;12.148;2023-01-31T11:25:50;6.03;;;3.25;;
11303;SDS011;5707;49.588;12.148;2023-01-31T11:28:18;5.03;;;2.72;;
11303;SDS011;5707;49.588;12.148;2023-01-31T11:31:03;5.07;;;4.13;;
11303;SDS011;5707;49.588;12.148;2023-01-31T11:33:44;10.65;;;7.32;;
11303;SDS011;5707;49.588;12.148;2023-01-31T11:36:19;4.80;;;3.38;;
11303;SDS011;5707;49.588;12.148;2023-01-31T11:38:49;5.60;;;3.17;;
11303;SDS011;5707;49.588;12.148;2023-01-31T11:44:16;5.65;;;2.22;;
11303;SDS011;5707;49.588;12.148;2023-01-31T11:49:22;4.32;;;2.20;;
11303;SDS011;5707;49.588;12.148;2023-01-31T11:51:59;5.32;;;2.60;;
11303;SDS011;5707;49.588;12.148;2023-01-31T11:54:36;5.85;;;3.20;;
11303;SDS011;5707;49.588;12.148;2023-01-31T11:57:23;4.50;;;2.92;;
11303;SDS011;5707;49.588;12.148;2023-01-31T11:59:53;6.70;;;2.42;;
11303;SDS011;5707;49.588;12.148;2023-01-31T12:02:23;5.53;;;3.35;;
11303;SDS011;5707;49.588;12.148;2023-01-31T12:04:54;2.88;;;1.73;;
11303;SDS011;5707;49.588;12.148;2023-01-31T12:07:24;6.90;;;3.20;;
11303;SDS011;5707;49.588;12.148;2023-01-31T12:10:01;5.53;;;2.80;;
11303;SDS011;5707;49.588;12.148;2023-01-31T12:12:28;7.00;;;2.75;;
11303;SDS011;5707;49.588;12.148;2023-01-31T12:14:58;4.32;;;2.67;;
11303;SDS011;5707;49.588;12.148;2023-01-31T12:17:27;5.43;;;2.70;;
11303;SDS011;5707;49.588;12.148;2023-01-31T12:20:17;4.38;;;2.28;;
11303;SDS011;5707;49.588;12.148;2023-01-31T12:26:03;4.45;;;2.42;;
11303;SDS011;5707;49.588;12.148;2023-01-31T12:34:13;5.05;;;3.17;;
11303;SDS011;5707;49.588;12.148;2023-01-31T12:39:46;8.18;;;2.67;;
11303;SDS011;5707;49.588;12.148;2023-01-31T12:42:41;3.97;;;2.47;;
11303;SDS011;5707;49.588;12.148;2023-01-31T12:45:24;4.75;;;2.45;;
11303;SDS011;5707;49.588;12.148;2023-01-31T13:02:30;5.80;;;2.42;;
11303;SDS011;5707;49.588;12.148;2023-01-31T13:05:23;4.20;;;2.45;;
11303;SDS011;5707;49.588;12.148;2023-01-31T13:10:27;2.88;;;2.00;;
11303;SDS011;5707;49.588;12.148;2023-01-31T13:12:59;6.68;;;2.40;;
11303;SDS011;5707;49.588;12.148;2023-01-31T13:15:27;9.10;;;3.05;;
11303;SDS011;5707;49.588;12.148;2023-01-31T13:17:56;3.50;;;2.35;;
11303;SDS011;5707;49.588;12.148;2023-01-31T13:23:25;5.90;;;2.47;;
11303;SDS011;5707;49.588;12.148;2023-01-31T13:28:36;3.83;;;2.45;;
11303;SDS011;5707;49.588;12.148;2023-01-31T13:31:14;5.32;;;2.58;;
11303;SDS011;5707;49.588;12.148;2023-01-31T13:36:32;6.72;;;2.90;;
11303;SDS011;5707;49.588;12.148;2023-01-31T13:39:13;5.50;;;2.53;;
11303;SDS011;5707;49.588;12.148;2023-01-31T13:41:48;11.07;;;3.20;;
11303;SDS011;5707;49.588;12.148;2023-01-31T13:44:14;5.97;;;2.90;;
11303;SDS011;5707;49.588;12.148;2023-01-31T13:46:51;5.90;;;3.13;;
11303;SDS011;5707;49.588;12.148;2023-01-31T13:49:26;7.32;;;3.85;;
11303;SDS011;5707;49.588;12.148;2023-01-31T13:51:56;6.55;;;3.85;;
11303;SDS011;5707;49.588;12.148;2023-01-31T13:54:31;5.38;;;3.53;;
11303;SDS011;5707;49.588;12.148;2023-01-31T14:00:02;5.60;;;2.90;;
11303;SDS011;5707;49.588;12.148;2023-01-31T14:02:29;5.00;;;2.90;;
11303;SDS011;5707;49.588;12.148;2023-01-31T14:05:02;6.95;;;4.05;;
11303;SDS011;5707;49.588;12.148;2023-01-31T14:11:00;6.13;;;3.70;;
11303;SDS011;5707;49.588;12.148;2023-01-31T14:15:58;6.88;;;3.65;;
11303;SDS011;5707;49.588;12.148;2023-01-31T14:18:41;5.28;;;3.38;;
11303;SDS011;5707;49.588;12.148;2023-01-31T14:23:53;8.95;;;4.15;;
11303;SDS011;5707;49.588;12.148;2023-01-31T14:26:33;8.32;;;3.85;;
11303;SDS011;5707;49.588;12.148;2023-01-31T14:29:09;6.75;;;4.88;;
11303;SDS011;5707;49.588;12.148;2023-01-31T14:31:42;8.27;;;5.15;;
11303;SDS011;5707;49.588;12.148;2023-01-31T14:45:05;5.95;;;4.10;;
11303;SDS011;5707;49.588;12.148;2023-01-31T14:53:16;7.90;;;3.33;;
11303;SDS011;5707;49.588;12.148;2023-01-31T14:58:58;4.55;;;2.78;;
11303;SDS011;5707;49.588;12.148;2023-01-31T15:01:30;7.25;;;3.33;;
11303;SDS011;5707;49.588;12.148;2023-01-31T15:03:59;4.63;;;3.00;;
11303;SDS011;5707;49.588;12.148;2023-01-31T15:11:46;4.72;;;3.10;;
11303;SDS011;5707;49.588;12.148;2023-01-31T15:17:20;5.65;;;2.88;;
11303;SDS011;5707;49.588;12.148;2023-01-31T15:19:54;6.80;;;3.78;;
11303;SDS011;5707;49.588;12.148;2023-01-31T15:22:41;5.95;;;3.08;;
11303;SDS011;5707;49.588;12.148;2023-01-31T15:25:51;5.00;;;3.03;;
11303;SDS011;5707;49.588;12.148;2023-01-31T15:27:59;5.82;;;3.28;;
11303;SDS011;5707;49.588;12.148;2023-01-31T15:30:26;5.03;;;3.42;;
11303;SDS011;5707;49.588;12.148;2023-01-31T15:32:58;6.25;;;4.07;;
11303;SDS011;5707;49.588;12.148;2023-01-31T15:35:34;6.63;;;3.33;;
11303;SDS011;5707;49.588;12.148;2023-01-31T15:38:18;5.60;;;3.10;;
11303;SDS011;5707;49.588;12.148;2023-01-31T15:40:45;3.78;;;2.80;;
11303;SDS011;5707;49.588;12.148;2023-01-31T15:43:29;4.45;;;3.78;;
11303;SDS011;5707;49.588;12.148;2023-01-31T15:45:54;3.10;;;2.75;;
11303;SDS011;5707;49.588;12.148;2023-01-31T15:48:20;4.28;;;3.50;;
11303;SDS011;5707;49.588;12.148;2023-01-31T15:50:48;4.72;;;3.53;;
11303;SDS011;5707;49.588;12.148;2023-01-31T15:53:16;5.43;;;4.20;;
11303;SDS011;5707;49.588;12.148;2023-01-31T15:55:42;6.90;;;3.83;;
11303;SDS011;5707;49.588;12.148;2023-01-31T15:58:18;4.25;;;3.17;;
11303;SDS011;5707;49.588;12.148;2023-01-31T16:00:48;2.67;;;2.45;;
11303;SDS011;5707;49.588;12.148;2023-01-31T16:03:22;5.65;;;3.30;;
11303;SDS011;5707;49.588;12.148;2023-01-31T16:05:51;7.18;;;3.00;;
11303;SDS011;5707;49.588;12.148;2023-01-31T16:10:58;3.70;;;3.15;;
11303;SDS011;5707;49.588;12.148;2023-01-31T16:13:33;4.07;;;3.30;;
11303;SDS011;5707;49.588;12.148;2023-01-31T16:16:02;3.63;;;2.03;;
11303;SDS011;5707;49.588;12.148;2023-01-31T16:18:34;6.13;;;3.10;;
11303;SDS011;5707;49.588;12.148;2023-01-31T16:26:39;4.53;;;3.17;;
11303;SDS011;5707;49.588;12.148;2023-01-31T16:29:13;5.07;;;3.40;;
11303;SDS011;5707;49.588;12.148;2023-01-31T16:31:47;5.00;;;3.03;;
11303;SDS011;5707;49.588;12.148;2023-01-31T16:34:33;4.72;;;3.08;;
11303;SDS011;5707;49.588;12.148;2023-01-31T16:37:03;5.15;;;2.70;;
11303;SDS011;5707;49.588;12.148;2023-01-31T16:44:41;4.30;;;3.42;;
11303;SDS011;5707;49.588;12.148;2023-01-31T16:52:40;5.85;;;3.75;;
11303;SDS011;5707;49.588;12.148;2023-01-31T16:55:11;5.72;;;4.47;;
11303;SDS011;5707;49.588;12.148;2023-01-31T16:57:38;4.80;;;3.42;;
11303;SDS011;5707;49.588;12.148;2023-01-31T17:00:05;3.60;;;2.95;;
11303;SDS011;5707;49.588;12.148;2023-01-31T17:02:33;3.47;;;3.17;;
11303;SDS011;5707;49.588;12.148;2023-01-31T17:07:43;3.25;;;2.95;;
11303;SDS011;5707;49.588;12.148;2023-01-31T17:10:16;4.30;;;3.85;;
11303;SDS011;5707;49.588;12.148;2023-01-31T17:12:47;5.75;;;3.75;;
11303;SDS011;5707;49.588;12.148;2023-01-31T17:15:15;3.50;;;2.97;;
11303;SDS011;5707;49.588;12.148;2023-01-31T17:17:42;4.68;;;4.07;;
11303;SDS011;5707;49.588;12.148;2023-01-31T17:20:09;4.18;;;3.30;;
11303;SDS011;5707;49.588;12.148;2023-01-31T17:22:38;5.53;;;3.88;;
11303;SDS011;5707;49.588;12.148;2023-01-31T17:25:10;5.30;;;3.40;;
11303;SDS011;5707;49.588;12.148;2023-01-31T17:27:46;4.10;;;3.50;;
11303;SDS011;5707;49.588;12.148;2023-01-31T17:30:13;4.68;;;3.30;;
11303;SDS011;5707;49.588;12.148;2023-01-31T17:32:40;6.35;;;3.63;;
11303;SDS011;5707;49.588;12.148;2023-01-31T17:37:59;5.18;;;3.50;;
11303;SDS011;5707;49.588;12.148;2023-01-31T17:40:25;3.65;;;3.08;;
11303;SDS011;5707;49.588;12.148;2023-01-31T17:42:52;7.10;;;3.95;;
11303;SDS011;5707;49.588;12.148;2023-01-31T17:45:21;4.65;;;3.72;;
11303;SDS011;5707;49.588;12.148;2023-01-31T17:47:46;3.30;;;3.00;;
11303;SDS011;5707;49.588;12.148;2023-01-31T17:50:13;4.00;;;3.60;;